Time;durP1;ratioP1;P1;durP2;ratioP2;P2;SDS_P1;SDS_P2;PMS_P1;PMS_P2;Temp;Humidity;BMP_temperature;BMP_pressure;BME280_temperature;BME280_humidity;BME280_pressure;Samples;Min_cycle;Max_cycle;Signal;HPM_P1;HPM_P2
2022/07/03 00:02:05;;;;;;;1.63;0.60;;;;;;;;;;5059811;28;20963;-70
2022/07/03 00:04:54;;;;;;;0.57;0.57;;;;;;;;;;5059167;28;20213;-70
2022/07/03 00:07:41;;;;;;;1.40;0.60;;;;;;;;;;5063388;28;20206;-71
2022/07/03 00:10:28;;;;;;;0.70;0.70;;;;;;;;;;5056304;28;20236;-71
2022/07/03 00:13:18;;;;;;;0.50;0.50;;;;;;;;;;5060783;28;20621;-71
2022/07/03 00:16:05;;;;;;;0.90;0.80;;;;;;;;;;5057442;28;20684;-70
2022/07/03 00:18:54;;;;;;;0.60;0.60;;;;;;;;;;5059239;28;20288;-71
2022/07/03 00:21:46;;;;;;;0.53;0.53;;;;;;;;;;5059861;28;20210;-71
2022/07/03 00:24:40;;;;;;;0.90;0.90;;;;;;;;;;5059698;28;20211;-70
2022/07/03 00:27:28;;;;;;;0.53;0.53;;;;;;;;;;5055033;28;20579;-71
2022/07/03 00:30:16;;;;;;;0.80;0.73;;;;;;;;;;5058226;28;20211;-71
2022/07/03 00:33:04;;;;;;;0.90;0.90;;;;;;;;;;5056611;28;20310;-71
2022/07/03 00:35:56;;;;;;;0.70;0.70;;;;;;;;;;5059294;28;20206;-71
2022/07/03 00:38:45;;;;;;;0.63;0.63;;;;;;;;;;5060795;28;20298;-71
2022/07/03 00:41:35;;;;;;;3.23;0.70;;;;;;;;;;5058537;28;20209;-71
2022/07/03 00:44:23;;;;;;;1.47;0.70;;;;;;;;;;5060855;28;20211;-71
2022/07/03 00:47:12;;;;;;;0.70;0.70;;;;;;;;;;5064059;28;20677;-71
2022/07/03 00:50:00;;;;;;;0.80;0.80;;;;;;;;;;5062372;28;20476;-71
2022/07/03 00:52:51;;;;;;;0.90;0.60;;;;;;;;;;5057801;28;20213;-71
2022/07/03 00:55:40;;;;;;;0.50;0.50;;;;;;;;;;5060206;28;20210;-70
2022/07/03 00:58:29;;;;;;;0.63;0.63;;;;;;;;;;5063051;28;20211;-71
2022/07/03 01:01:19;;;;;;;0.70;0.70;;;;;;;;;;5054124;28;20626;-71
2022/07/03 01:04:22;;;;;;;0.50;0.50;;;;;;;;;;5063278;28;20216;-71
2022/07/03 01:07:17;;;;;;;1.03;0.70;;;;;;;;;;5061826;28;20210;-70
2022/07/03 01:10:09;;;;;;;0.80;0.80;;;;;;;;;;5067692;28;20270;-71
2022/07/03 01:13:04;;;;;;;0.73;0.70;;;;;;;;;;5059383;28;20213;-71
2022/07/03 01:16:04;;;;;;;0.70;0.70;;;;;;;;;;5061954;28;20214;-71
2022/07/03 01:18:54;;;;;;;0.70;0.70;;;;;;;;;;5062408;28;20206;-71
2022/07/03 01:21:48;;;;;;;0.60;0.60;;;;;;;;;;5066554;28;20230;-70
2022/07/03 01:24:45;;;;;;;0.87;0.80;;;;;;;;;;5066646;28;20291;-71
2022/07/03 01:27:39;;;;;;;0.53;0.53;;;;;;;;;;5058193;28;20206;-70
2022/07/03 01:30:28;;;;;;;0.53;0.53;;;;;;;;;;5060547;28;20266;-71
2022/07/03 01:33:18;;;;;;;0.60;0.60;;;;;;;;;;5065782;28;20288;-71
2022/07/03 01:36:07;;;;;;;0.77;0.77;;;;;;;;;;5062746;28;20210;-71
2022/07/03 01:38:56;;;;;;;0.50;0.50;;;;;;;;;;5066786;28;20569;-70
2022/07/03 01:41:46;;;;;;;0.77;0.77;;;;;;;;;;5062727;28;20226;-71
2022/07/03 01:44:39;;;;;;;0.70;0.70;;;;;;;;;;5063189;28;20586;-71
2022/07/03 01:47:27;;;;;;;1.47;0.80;;;;;;;;;;5062774;28;20581;-70
2022/07/03 01:50:16;;;;;;;1.07;0.77;;;;;;;;;;5062538;28;20319;-71
2022/07/03 01:53:06;;;;;;;0.60;0.60;;;;;;;;;;5064318;28;20269;-70
2022/07/03 01:55:56;;;;;;;0.47;0.47;;;;;;;;;;5065806;28;20244;-70
2022/07/03 01:58:43;;;;;;;1.57;0.80;;;;;;;;;;5059258;28;20290;-71
2022/07/03 02:01:38;;;;;;;1.23;0.70;;;;;;;;;;5061723;28;20237;-71
2022/07/03 02:04:32;;;;;;;0.80;0.80;;;;;;;;;;5061799;28;20204;-70
2022/07/03 02:07:36;;;;;;;0.50;0.50;;;;;;;;;;5059686;28;20498;-70
2022/07/03 02:10:29;;;;;;;0.67;0.60;;;;;;;;;;5061314;28;20233;-70
2022/07/03 02:13:20;;;;;;;0.50;0.50;;;;;;;;;;5062187;28;20340;-70
2022/07/03 02:16:09;;;;;;;0.63;0.63;;;;;;;;;;5065972;28;20214;-70
2022/07/03 02:19:05;;;;;;;1.10;1.00;;;;;;;;;;5060749;28;20230;-71
2022/07/03 02:21:55;;;;;;;0.63;0.63;;;;;;;;;;5060814;28;20241;-71
2022/07/03 02:24:44;;;;;;;1.07;0.73;;;;;;;;;;5062553;28;20211;-70
2022/07/03 02:27:39;;;;;;;0.53;0.53;;;;;;;;;;5063894;28;20680;-71
2022/07/03 02:30:28;;;;;;;0.60;0.60;;;;;;;;;;5058305;28;20669;-71
2022/07/03 02:33:22;;;;;;;0.60;0.60;;;;;;;;;;5061325;28;20294;-71
2022/07/03 02:36:12;;;;;;;0.70;0.70;;;;;;;;;;5061846;28;20274;-71
2022/07/03 02:38:59;;;;;;;0.67;0.67;;;;;;;;;;5058958;28;20344;-71
2022/07/03 02:41:49;;;;;;;0.73;0.73;;;;;;;;;;5060516;28;20240;-71
2022/07/03 02:44:45;;;;;;;0.60;0.60;;;;;;;;;;5057368;28;20708;-71
2022/07/03 02:47:41;;;;;;;0.60;0.60;;;;;;;;;;5058508;28;20210;-71
2022/07/03 02:50:29;;;;;;;0.60;0.60;;;;;;;;;;5056717;28;20267;-71
2022/07/03 02:53:32;;;;;;;0.60;0.60;;;;;;;;;;5058577;28;20229;-71
2022/07/03 02:56:28;;;;;;;0.80;0.80;;;;;;;;;;5061786;28;20660;-71
2022/07/03 02:59:26;;;;;;;0.70;0.50;;;;;;;;;;5060088;28;20323;-72
2022/07/03 03:02:20;;;;;;;0.63;0.63;;;;;;;;;;5059248;28;20248;-72
2022/07/03 03:05:16;;;;;;;0.80;0.80;;;;;;;;;;5057721;28;20275;-70
2022/07/03 03:08:12;;;;;;;0.93;0.73;;;;;;;;;;5057317;28;20293;-71
2022/07/03 03:11:07;;;;;;;0.90;0.80;;;;;;;;;;5057301;28;20676;-70
2022/07/03 03:13:56;;;;;;;0.67;0.67;;;;;;;;;;5057241;28;20206;-71
2022/07/03 03:16:48;;;;;;;0.70;0.70;;;;;;;;;;5059354;28;20212;-71
2022/07/03 03:19:40;;;;;;;0.67;0.67;;;;;;;;;;5057684;28;20289;-71
2022/07/03 03:22:39;;;;;;;0.67;0.67;;;;;;;;;;5062281;28;20604;-71
2022/07/03 03:25:26;;;;;;;1.27;0.60;;;;;;;;;;5057646;28;20217;-71
2022/07/03 03:28:15;;;;;;;1.17;0.50;;;;;;;;;;5061107;28;20213;-71
2022/07/03 03:31:06;;;;;;;0.60;0.60;;;;;;;;;;5055625;28;20231;-71
2022/07/03 03:33:54;;;;;;;1.33;0.80;;;;;;;;;;5058765;28;20287;-71
2022/07/03 03:36:41;;;;;;;0.63;0.63;;;;;;;;;;5059876;28;20276;-71
2022/07/03 03:39:29;;;;;;;0.70;0.70;;;;;;;;;;5056135;28;20583;-70
2022/07/03 03:42:16;;;;;;;0.87;0.50;;;;;;;;;;5055835;28;20273;-70
2022/07/03 03:45:06;;;;;;;0.83;0.60;;;;;;;;;;5060644;28;20202;-70
2022/07/03 03:47:53;;;;;;;0.83;0.63;;;;;;;;;;5061616;28;20209;-71
2022/07/03 03:50:42;;;;;;;0.90;0.90;;;;;;;;;;5053527;28;20204;-72
2022/07/03 03:53:30;;;;;;;0.77;0.77;;;;;;;;;;5060838;28;20691;-70
2022/07/03 03:56:17;;;;;;;0.67;0.67;;;;;;;;;;5056466;28;20214;-71
2022/07/03 03:59:06;;;;;;;0.67;0.60;;;;;;;;;;5054518;28;20259;-71
2022/07/03 04:01:54;;;;;;;0.50;0.50;;;;;;;;;;5061896;28;20233;-71
2022/07/03 04:04:41;;;;;;;0.60;0.60;;;;;;;;;;5058517;28;20224;-71
2022/07/03 04:07:28;;;;;;;0.60;0.60;;;;;;;;;;5063572;28;20284;-71
2022/07/03 04:10:15;;;;;;;0.70;0.70;;;;;;;;;;5059566;28;20286;-71
2022/07/03 04:13:02;;;;;;;0.60;0.60;;;;;;;;;;5060120;28;20278;-70
2022/07/03 04:15:51;;;;;;;0.50;0.50;;;;;;;;;;5059299;28;20214;-70
2022/07/03 04:18:39;;;;;;;0.90;0.77;;;;;;;;;;5058892;28;20275;-71
2022/07/03 04:21:26;;;;;;;0.70;0.70;;;;;;;;;;5062618;28;20231;-71
2022/07/03 04:24:13;;;;;;;1.10;0.80;;;;;;;;;;5065234;28;20238;-71
2022/07/03 04:27:00;;;;;;;0.83;0.60;;;;;;;;;;5058019;28;20221;-71
2022/07/03 04:29:47;;;;;;;0.50;0.50;;;;;;;;;;5064709;28;20205;-71
2022/07/03 04:32:34;;;;;;;0.87;0.73;;;;;;;;;;5062006;28;20203;-71
2022/07/03 04:35:23;;;;;;;0.70;0.70;;;;;;;;;;5066591;28;20216;-70
2022/07/03 04:38:11;;;;;;;0.50;0.50;;;;;;;;;;5056971;28;20210;-71
2022/07/03 04:40:57;;;;;;;0.80;0.80;;;;;;;;;;5061097;28;20713;-71
2022/07/03 04:43:44;;;;;;;0.87;0.60;;;;;;;;;;5057635;28;20246;-71
2022/07/03 04:46:31;;;;;;;0.50;0.50;;;;;;;;;;5060709;28;20217;-70
2022/07/03 04:49:18;;;;;;;0.50;0.50;;;;;;;;;;5055651;28;20576;-70
2022/07/03 04:52:07;;;;;;;0.70;0.70;;;;;;;;;;5059254;28;20209;-71
2022/07/03 04:54:54;;;;;;;0.43;0.43;;;;;;;;;;5054345;28;20204;-70
2022/07/03 04:57:42;;;;;;;0.57;0.57;;;;;;;;;;5059293;28;20214;-71
2022/07/03 05:00:29;;;;;;;0.63;0.63;;;;;;;;;;5058268;28;20218;-70
2022/07/03 05:03:17;;;;;;;0.50;0.50;;;;;;;;;;5063140;28;20313;-71
2022/07/03 05:06:04;;;;;;;0.67;0.67;;;;;;;;;;5058218;28;20210;-70
2022/07/03 05:08:53;;;;;;;0.50;0.50;;;;;;;;;;5056123;28;20253;-71
2022/07/03 05:11:40;;;;;;;0.80;0.80;;;;;;;;;;5058590;28;20212;-71
2022/07/03 05:14:27;;;;;;;0.80;0.80;;;;;;;;;;5056071;28;20207;-70
2022/07/03 05:17:17;;;;;;;0.80;0.80;;;;;;;;;;5057005;28;20374;-72
2022/07/03 05:23:10;;;;;;;0.80;0.80;;;;;;;;;;5061052;28;20271;-71
2022/07/03 05:25:59;;;;;;;0.70;0.70;;;;;;;;;;5061004;28;20214;-71
2022/07/03 05:28:46;;;;;;;0.77;0.77;;;;;;;;;;5059741;28;20688;-71
2022/07/03 05:31:33;;;;;;;0.93;0.70;;;;;;;;;;5058461;28;20215;-71
2022/07/03 05:34:21;;;;;;;0.50;0.50;;;;;;;;;;5056942;28;20307;-70
2022/07/03 05:37:08;;;;;;;1.10;1.00;;;;;;;;;;5054527;28;20223;-71
2022/07/03 05:39:55;;;;;;;1.27;0.90;;;;;;;;;;5055396;28;20211;-71
2022/07/03 05:42:43;;;;;;;0.50;0.50;;;;;;;;;;5052878;28;20230;-71
2022/07/03 05:45:30;;;;;;;0.63;0.63;;;;;;;;;;5057813;28;20210;-70
2022/07/03 05:48:17;;;;;;;0.60;0.60;;;;;;;;;;5054422;28;20291;-71
2022/07/03 05:51:04;;;;;;;0.33;0.33;;;;;;;;;;5058458;28;20211;-71
2022/07/03 05:53:51;;;;;;;0.50;0.50;;;;;;;;;;5058433;28;20211;-71
2022/07/03 05:56:38;;;;;;;0.60;0.60;;;;;;;;;;5060507;28;20724;-71
2022/07/03 05:59:27;;;;;;;0.50;0.50;;;;;;;;;;5062446;28;20218;-71
2022/07/03 06:02:14;;;;;;;1.07;0.60;;;;;;;;;;5064508;28;20236;-72
2022/07/03 06:05:01;;;;;;;0.60;0.60;;;;;;;;;;5062422;28;20332;-70
2022/07/03 06:07:49;;;;;;;0.67;0.67;;;;;;;;;;5062768;28;20218;-71
2022/07/03 06:10:36;;;;;;;0.50;0.50;;;;;;;;;;5064988;28;20238;-71
2022/07/03 06:13:23;;;;;;;0.73;0.60;;;;;;;;;;5059446;28;20682;-71
2022/07/03 06:16:12;;;;;;;0.47;0.47;;;;;;;;;;5064775;28;20221;-71
2022/07/03 06:18:59;;;;;;;1.17;0.70;;;;;;;;;;5065260;28;20705;-71
2022/07/03 06:21:46;;;;;;;0.77;0.50;;;;;;;;;;5056257;28;20235;-71
2022/07/03 06:24:33;;;;;;;0.57;0.57;;;;;;;;;;5063674;28;20250;-70
2022/07/03 06:27:19;;;;;;;0.50;0.50;;;;;;;;;;5059251;28;20207;-70
2022/07/03 06:30:08;;;;;;;0.70;0.70;;;;;;;;;;5061043;28;20246;-70
2022/07/03 06:32:56;;;;;;;0.80;0.80;;;;;;;;;;5062086;28;20211;-70
2022/07/03 06:35:44;;;;;;;0.50;0.50;;;;;;;;;;5058290;28;20291;-71
2022/07/03 06:38:32;;;;;;;0.70;0.70;;;;;;;;;;5063404;28;20571;-71
2022/07/03 06:41:18;;;;;;;0.70;0.60;;;;;;;;;;5064733;28;20263;-71
2022/07/03 06:44:05;;;;;;;0.80;0.70;;;;;;;;;;5062581;28;20288;-71
2022/07/03 06:46:54;;;;;;;0.73;0.73;;;;;;;;;;5065324;28;20205;-70
2022/07/03 06:49:44;;;;;;;0.60;0.60;;;;;;;;;;5061347;28;20256;-70
2022/07/03 06:52:30;;;;;;;0.50;0.50;;;;;;;;;;5055684;28;20209;-70
2022/07/03 06:55:18;;;;;;;0.83;0.53;;;;;;;;;;5053705;28;20598;-71
2022/07/03 06:58:04;;;;;;;0.67;0.67;;;;;;;;;;5061159;28;20233;-71
2022/07/03 07:00:51;;;;;;;0.60;0.60;;;;;;;;;;5066227;28;20280;-71
2022/07/03 07:03:38;;;;;;;0.70;0.70;;;;;;;;;;5064305;28;20296;-71
2022/07/03 07:06:27;;;;;;;0.50;0.50;;;;;;;;;;5058155;28;20285;-70
2022/07/03 07:09:13;;;;;;;0.60;0.60;;;;;;;;;;5065560;28;20325;-72
2022/07/03 07:12:00;;;;;;;0.77;0.77;;;;;;;;;;5057839;28;20229;-72
2022/07/03 07:14:47;;;;;;;0.57;0.57;;;;;;;;;;5063476;28;20658;-73
2022/07/03 07:17:34;;;;;;;0.77;0.70;;;;;;;;;;5063061;28;20252;-73
2022/07/03 07:20:21;;;;;;;0.50;0.50;;;;;;;;;;5061717;28;20213;-73
2022/07/03 07:23:12;;;;;;;0.77;0.70;;;;;;;;;;5064242;28;20226;-73
2022/07/03 07:25:59;;;;;;;0.53;0.53;;;;;;;;;;5058990;28;20797;-73
2022/07/03 07:28:46;;;;;;;0.73;0.60;;;;;;;;;;5060359;28;20217;-73
2022/07/03 07:31:34;;;;;;;0.73;0.73;;;;;;;;;;5063537;28;20249;-73
2022/07/03 07:34:21;;;;;;;0.70;0.70;;;;;;;;;;5062624;28;20217;-73
2022/07/03 07:37:10;;;;;;;0.60;0.60;;;;;;;;;;5061345;28;20205;-73
2022/07/03 07:39:58;;;;;;;1.57;0.73;;;;;;;;;;5060874;28;20615;-74
2022/07/03 07:42:45;;;;;;;0.60;0.60;;;;;;;;;;5061408;28;20315;-73
2022/07/03 07:45:32;;;;;;;0.70;0.70;;;;;;;;;;5055040;28;20576;-73
2022/07/03 07:48:20;;;;;;;0.67;0.67;;;;;;;;;;5057436;28;20201;-73
2022/07/03 07:51:07;;;;;;;0.63;0.63;;;;;;;;;;5060085;28;20211;-73
2022/07/03 07:53:57;;;;;;;0.67;0.60;;;;;;;;;;5057485;28;20242;-74
2022/07/03 07:56:45;;;;;;;0.50;0.50;;;;;;;;;;5058095;28;20293;-73
2022/07/03 07:59:32;;;;;;;0.60;0.60;;;;;;;;;;5051348;28;20202;-73
2022/07/03 08:08:33;;;;;;;0.53;0.53;;;;;;;;;;5051407;28;20209;-73
2022/07/03 08:11:20;;;;;;;0.70;0.70;;;;;;;;;;5059422;28;20206;-73
2022/07/03 08:14:10;;;;;;;0.70;0.70;;;;;;;;;;5056525;28;20205;-73
2022/07/03 08:16:57;;;;;;;0.80;0.80;;;;;;;;;;5056333;28;20746;-73
2022/07/03 08:19:44;;;;;;;0.77;0.77;;;;;;;;;;5055973;28;20546;-73
2022/07/03 08:22:31;;;;;;;0.50;0.50;;;;;;;;;;5062679;28;20236;-73
2022/07/03 08:25:19;;;;;;;0.70;0.70;;;;;;;;;;5064389;28;20237;-73
2022/07/03 08:28:06;;;;;;;0.70;0.70;;;;;;;;;;5057300;28;20629;-73
2022/07/03 08:30:54;;;;;;;0.67;0.67;;;;;;;;;;5057874;28;20364;-73
2022/07/03 08:33:41;;;;;;;0.67;0.67;;;;;;;;;;5055659;28;20771;-73
2022/07/03 08:36:28;;;;;;;0.73;0.70;;;;;;;;;;5059476;28;20213;-73
2022/07/03 08:39:15;;;;;;;0.50;0.50;;;;;;;;;;5055785;28;20551;-73
2022/07/03 08:42:03;;;;;;;0.80;0.80;;;;;;;;;;5062529;28;20240;-74
2022/07/03 08:44:52;;;;;;;0.60;0.60;;;;;;;;;;5058135;28;20216;-73
2022/07/03 08:47:42;;;;;;;0.73;0.73;;;;;;;;;;5057463;28;20633;-73
2022/07/03 08:50:34;;;;;;;0.70;0.70;;;;;;;;;;5057766;28;20222;-73
2022/07/03 08:53:25;;;;;;;1.00;0.80;;;;;;;;;;5063527;28;20202;-73
2022/07/03 08:56:15;;;;;;;0.40;0.40;;;;;;;;;;5056815;28;20209;-73
2022/07/03 08:59:04;;;;;;;1.13;0.77;;;;;;;;;;5056933;28;20210;-73
2022/07/03 09:01:53;;;;;;;0.87;0.80;;;;;;;;;;5056857;28;20229;-73
2022/07/03 09:04:42;;;;;;;0.73;0.67;;;;;;;;;;5054956;28;20301;-73
2022/07/03 09:07:32;;;;;;;0.80;0.77;;;;;;;;;;5054684;28;20206;-73
2022/07/03 09:10:20;;;;;;;0.70;0.70;;;;;;;;;;5060757;28;20310;-73
2022/07/03 09:13:07;;;;;;;0.67;0.60;;;;;;;;;;5060364;28;20259;-73
2022/07/03 09:15:57;;;;;;;0.70;0.70;;;;;;;;;;5060177;28;20209;-73
2022/07/03 09:18:45;;;;;;;0.60;0.60;;;;;;;;;;5054158;28;20218;-73
2022/07/03 09:21:41;;;;;;;0.60;0.60;;;;;;;;;;5057909;28;20216;-73
2022/07/03 09:24:33;;;;;;;0.70;0.70;;;;;;;;;;5067729;28;20237;-73
2022/07/03 09:27:22;;;;;;;0.50;0.50;;;;;;;;;;5061095;28;20251;-73
2022/07/03 09:30:11;;;;;;;0.70;0.70;;;;;;;;;;5069802;28;20288;-73
2022/07/03 09:32:59;;;;;;;0.90;0.77;;;;;;;;;;5064149;28;20209;-73
2022/07/03 09:35:54;;;;;;;0.70;0.70;;;;;;;;;;5062315;28;20210;-73
2022/07/03 09:38:45;;;;;;;0.73;0.73;;;;;;;;;;5060907;28;20220;-74
2022/07/03 09:41:51;;;;;;;0.60;0.60;;;;;;;;;;5061515;28;20216;-73
2022/07/03 09:44:41;;;;;;;1.30;0.60;;;;;;;;;;5065639;28;20296;-73
2022/07/03 09:47:28;;;;;;;0.50;0.50;;;;;;;;;;5061028;28;20207;-73
2022/07/03 09:50:16;;;;;;;0.60;0.60;;;;;;;;;;5064570;28;20205;-73
2022/07/03 09:53:04;;;;;;;0.50;0.50;;;;;;;;;;5064123;28;20677;-73
2022/07/03 09:55:58;;;;;;;0.70;0.70;;;;;;;;;;5059567;28;20199;-73
2022/07/03 09:59:09;;;;;;;0.67;0.63;;;;;;;;;;5057458;28;20198;-73
2022/07/03 10:02:09;;;;;;;0.87;0.87;;;;;;;;;;5063709;28;20225;-73
2022/07/03 10:05:11;;;;;;;0.60;0.60;;;;;;;;;;5060228;28;20220;-73
2022/07/03 10:08:01;;;;;;;0.50;0.50;;;;;;;;;;5063390;28;20256;-73
2022/07/03 10:10:49;;;;;;;0.70;0.70;;;;;;;;;;5061653;28;20242;-73
2022/07/03 10:13:40;;;;;;;0.60;0.60;;;;;;;;;;5057775;28;20211;-73
2022/07/03 10:16:27;;;;;;;0.57;0.57;;;;;;;;;;5068237;28;20224;-73
2022/07/03 10:19:18;;;;;;;0.63;0.60;;;;;;;;;;5066568;28;20641;-73
2022/07/03 10:22:10;;;;;;;0.50;0.50;;;;;;;;;;5061447;28;20215;-73
2022/07/03 10:24:59;;;;;;;0.73;0.73;;;;;;;;;;5062877;28;20210;-73
2022/07/03 10:27:49;;;;;;;0.90;0.80;;;;;;;;;;5065554;28;20212;-73
2022/07/03 10:30:41;;;;;;;0.90;0.80;;;;;;;;;;5064392;28;20584;-73
2022/07/03 10:33:32;;;;;;;0.60;0.60;;;;;;;;;;5065932;28;20214;-74
2022/07/03 10:36:19;;;;;;;1.13;0.60;;;;;;;;;;5058147;28;20213;-73
2022/07/03 10:39:07;;;;;;;0.60;0.60;;;;;;;;;;5060942;28;20229;-73
2022/07/03 10:45:10;;;;;;;0.70;0.70;;;;;;;;;;5064923;28;20210;-73
2022/07/03 10:48:00;;;;;;;0.93;0.93;;;;;;;;;;5064708;28;20673;-74
2022/07/03 10:51:08;;;;;;;0.60;0.60;;;;;;;;;;5066798;28;20218;-73
2022/07/03 10:54:16;;;;;;;1.27;0.80;;;;;;;;;;5064812;28;20234;-73
2022/07/03 10:57:13;;;;;;;1.23;1.13;;;;;;;;;;5055725;28;20213;-73
2022/07/03 11:00:05;;;;;;;0.60;0.60;;;;;;;;;;5061239;28;20242;-73
2022/07/03 11:02:53;;;;;;;0.53;0.53;;;;;;;;;;5054176;28;20619;-74
2022/07/03 11:05:41;;;;;;;0.83;0.83;;;;;;;;;;5063136;28;20331;-73
2022/07/03 11:08:28;;;;;;;0.77;0.77;;;;;;;;;;5056921;28;20268;-73
2022/07/03 11:14:39;;;;;;;0.50;0.50;;;;;;;;;;5059854;28;20213;-73
2022/07/03 11:17:26;;;;;;;0.87;0.87;;;;;;;;;;5058359;28;20331;-73
2022/07/03 11:20:26;;;;;;;0.80;0.80;;;;;;;;;;5064611;28;20213;-73
2022/07/03 11:23:18;;;;;;;0.83;0.83;;;;;;;;;;5058811;28;20315;-73
2022/07/03 11:26:22;;;;;;;0.60;0.60;;;;;;;;;;5061041;28;20214;-73
2022/07/03 11:29:28;;;;;;;0.77;0.77;;;;;;;;;;5058748;28;20210;-73
2022/07/03 11:32:46;;;;;;;0.70;0.70;;;;;;;;;;5061700;28;20218;-73
2022/07/03 11:36:00;;;;;;;0.70;0.70;;;;;;;;;;5057918;28;20230;-73
2022/07/03 11:38:55;;;;;;;0.63;0.63;;;;;;;;;;5060396;28;20210;-73
2022/07/03 11:41:45;;;;;;;0.70;0.70;;;;;;;;;;5058205;28;20206;-73
2022/07/03 11:44:34;;;;;;;0.80;0.80;;;;;;;;;;5060404;28;20234;-73
2022/07/03 11:47:21;;;;;;;0.87;0.87;;;;;;;;;;5058962;28;20206;-73
2022/07/03 11:50:08;;;;;;;0.70;0.70;;;;;;;;;;5056777;28;20588;-73
2022/07/03 11:52:56;;;;;;;0.80;0.80;;;;;;;;;;5062495;28;20460;-73
2022/07/03 11:55:49;;;;;;;0.80;0.80;;;;;;;;;;5056693;28;20706;-73
2022/07/03 11:58:47;;;;;;;0.70;0.70;;;;;;;;;;5059083;28;20246;-73
2022/07/03 12:01:36;;;;;;;0.80;0.80;;;;;;;;;;5057456;28;20212;-73
2022/07/03 12:04:23;;;;;;;0.70;0.70;;;;;;;;;;5060178;28;20236;-73
2022/07/03 12:07:10;;;;;;;0.80;0.80;;;;;;;;;;5063825;28;20201;-73
2022/07/03 12:09:57;;;;;;;1.10;1.10;;;;;;;;;;5057632;28;20242;-73
2022/07/03 12:12:46;;;;;;;0.80;0.80;;;;;;;;;;5059530;28;20622;-74
2022/07/03 12:15:33;;;;;;;1.07;0.90;;;;;;;;;;5056952;28;20222;-73
2022/07/03 12:18:20;;;;;;;0.93;0.93;;;;;;;;;;5061266;28;20424;-73
2022/07/03 12:21:09;;;;;;;0.90;0.90;;;;;;;;;;5058944;28;20325;-73
2022/07/03 12:23:56;;;;;;;0.77;0.77;;;;;;;;;;5061893;28;20585;-73
2022/07/03 12:26:43;;;;;;;1.20;1.10;;;;;;;;;;5058305;28;20216;-73
2022/07/03 12:29:34;;;;;;;0.80;0.80;;;;;;;;;;5060432;28;20206;-73
2022/07/03 12:32:23;;;;;;;0.90;0.90;;;;;;;;;;5066372;28;20205;-73
2022/07/03 12:35:10;;;;;;;0.80;0.80;;;;;;;;;;5060130;28;20204;-73
2022/07/03 12:37:58;;;;;;;1.00;1.00;;;;;;;;;;5059393;28;20205;-73
2022/07/03 12:40:45;;;;;;;0.93;0.93;;;;;;;;;;5058863;28;20848;-73
2022/07/03 12:43:38;;;;;;;1.10;1.00;;;;;;;;;;5063578;28;20233;-73
2022/07/03 12:46:28;;;;;;;0.90;0.90;;;;;;;;;;5060417;28;20267;-73
2022/07/03 12:49:15;;;;;;;0.93;0.93;;;;;;;;;;5062755;28;20623;-73
2022/07/03 12:52:02;;;;;;;0.97;0.97;;;;;;;;;;5058558;28;20628;-73
2022/07/03 12:54:49;;;;;;;1.00;1.00;;;;;;;;;;5054983;28;20287;-73
2022/07/03 13:00:44;;;;;;;0.83;0.83;;;;;;;;;;5063141;28;20205;-73
2022/07/03 13:03:36;;;;;;;0.90;0.90;;;;;;;;;;5067510;28;20228;-74
2022/07/03 13:06:24;;;;;;;1.20;1.10;;;;;;;;;;5066893;28;20673;-73
2022/07/03 13:09:13;;;;;;;0.90;0.90;;;;;;;;;;5065420;28;20238;-73
2022/07/03 13:12:00;;;;;;;1.43;0.80;;;;;;;;;;5063049;28;20204;-73
2022/07/03 13:14:56;;;;;;;1.03;1.03;;;;;;;;;;5060672;28;20200;-73
2022/07/03 13:18:02;;;;;;;0.70;0.70;;;;;;;;;;5068045;28;20621;-73
2022/07/03 13:20:51;;;;;;;1.10;1.10;;;;;;;;;;5064877;28;20205;-73
2022/07/03 13:23:37;;;;;;;1.00;1.00;;;;;;;;;;5067623;28;20293;-73
2022/07/03 13:26:25;;;;;;;0.90;0.90;;;;;;;;;;5062789;28;20208;-73
2022/07/03 13:29:12;;;;;;;0.80;0.80;;;;;;;;;;5061958;28;20205;-73
2022/07/03 13:31:59;;;;;;;0.93;0.93;;;;;;;;;;5063788;28;20609;-73
2022/07/03 13:34:50;;;;;;;1.00;0.93;;;;;;;;;;5060128;28;20200;-74
2022/07/03 13:37:38;;;;;;;1.00;1.00;;;;;;;;;;5065816;28;20210;-73
2022/07/03 13:40:25;;;;;;;1.10;1.10;;;;;;;;;;5065857;28;20204;-73
2022/07/03 13:43:16;;;;;;;1.40;1.30;;;;;;;;;;5062594;28;20261;-74
2022/07/03 13:46:03;;;;;;;1.33;1.23;;;;;;;;;;5061027;28;20218;-73
2022/07/03 13:48:52;;;;;;;1.10;1.00;;;;;;;;;;5064134;28;20215;-74
2022/07/03 13:51:39;;;;;;;0.87;0.87;;;;;;;;;;5063100;28;20202;-73
2022/07/03 13:54:27;;;;;;;1.00;1.00;;;;;;;;;;5065951;28;20213;-73
2022/07/03 13:57:15;;;;;;;1.07;1.07;;;;;;;;;;5065094;28;20202;-73
2022/07/03 14:00:02;;;;;;;0.93;0.93;;;;;;;;;;5067259;28;20619;-73
2022/07/03 14:02:49;;;;;;;1.00;1.00;;;;;;;;;;5066906;28;20686;-73
2022/07/03 14:05:36;;;;;;;1.13;1.00;;;;;;;;;;5056967;28;20607;-71
2022/07/03 14:08:24;;;;;;;1.17;1.10;;;;;;;;;;5065605;28;20219;-70
2022/07/03 14:11:12;;;;;;;1.10;1.10;;;;;;;;;;5064986;28;20205;-73
2022/07/03 14:13:59;;;;;;;1.10;1.10;;;;;;;;;;5066977;28;20657;-73
2022/07/03 14:16:46;;;;;;;1.27;1.20;;;;;;;;;;5059925;28;20212;-73
2022/07/03 14:19:33;;;;;;;1.40;1.10;;;;;;;;;;5058851;28;20215;-73
2022/07/03 14:22:21;;;;;;;1.17;1.17;;;;;;;;;;5061502;28;20628;-73
2022/07/03 14:25:09;;;;;;;1.13;1.13;;;;;;;;;;5061563;28;20349;-73
2022/07/03 14:34:18;;;;;;;0.97;0.97;;;;;;;;;;5062448;28;20747;-73
2022/07/03 14:37:05;;;;;;;1.30;1.23;;;;;;;;;;5061780;28;20205;-73
2022/07/03 14:39:52;;;;;;;1.07;1.07;;;;;;;;;;5063193;28;20691;-73
2022/07/03 14:42:41;;;;;;;1.40;1.30;;;;;;;;;;5060653;28;20237;-73
2022/07/03 14:45:29;;;;;;;1.07;1.07;;;;;;;;;;5058654;28;20238;-73
2022/07/03 14:48:16;;;;;;;0.90;0.90;;;;;;;;;;5059070;28;20202;-73
2022/07/03 14:51:04;;;;;;;1.20;1.20;;;;;;;;;;5059769;28;20221;-73
2022/07/03 14:53:51;;;;;;;1.03;1.03;;;;;;;;;;5063810;28;20285;-73
2022/07/03 14:56:40;;;;;;;1.10;1.10;;;;;;;;;;5059847;28;20445;-73
2022/07/03 14:59:35;;;;;;;1.30;1.20;;;;;;;;;;5057591;28;20222;-73
2022/07/03 15:02:30;;;;;;;1.37;1.37;;;;;;;;;;5062396;28;20225;-74
2022/07/03 15:05:18;;;;;;;1.13;1.13;;;;;;;;;;5058654;28;20283;-73
2022/07/03 15:08:13;;;;;;;1.20;1.20;;;;;;;;;;5059929;28;20210;-73
2022/07/03 15:11:03;;;;;;;1.10;1.10;;;;;;;;;;5059955;28;20243;-73
2022/07/03 15:13:50;;;;;;;1.30;1.20;;;;;;;;;;5059911;28;20194;-73
2022/07/03 15:16:39;;;;;;;1.03;1.03;;;;;;;;;;5058786;28;20203;-73
2022/07/03 15:19:28;;;;;;;1.43;1.40;;;;;;;;;;5058627;28;20200;-73
2022/07/03 15:22:16;;;;;;;1.23;1.20;;;;;;;;;;5061301;28;20566;-73
2022/07/03 15:25:05;;;;;;;1.00;1.00;;;;;;;;;;5059652;28;20235;-73
2022/07/03 15:27:55;;;;;;;1.13;1.13;;;;;;;;;;5057845;28;20576;-73
2022/07/03 15:30:48;;;;;;;1.30;1.30;;;;;;;;;;5060369;28;20201;-73
2022/07/03 15:33:35;;;;;;;1.47;1.37;;;;;;;;;;5060106;28;20582;-73
2022/07/03 15:36:30;;;;;;;1.10;1.10;;;;;;;;;;5062219;28;20200;-73
2022/07/03 15:39:21;;;;;;;0.90;0.90;;;;;;;;;;5061702;28;20229;-73
2022/07/03 15:42:17;;;;;;;1.37;1.30;;;;;;;;;;5058833;28;20222;-73
2022/07/03 15:45:07;;;;;;;1.03;1.03;;;;;;;;;;5066817;28;20617;-73
2022/07/03 15:48:04;;;;;;;1.10;1.10;;;;;;;;;;5061771;28;20209;-73
2022/07/03 15:50:58;;;;;;;1.20;1.10;;;;;;;;;;5063266;28;20278;-73
2022/07/03 15:53:50;;;;;;;1.73;1.37;;;;;;;;;;5059054;28;20209;-73
2022/07/03 15:56:40;;;;;;;1.20;1.20;;;;;;;;;;5063054;28;20213;-73
2022/07/03 15:59:30;;;;;;;1.03;1.03;;;;;;;;;;5056984;28;20218;-73
2022/07/03 16:02:26;;;;;;;1.60;1.50;;;;;;;;;;5055981;28;20230;-73
2022/07/03 16:05:19;;;;;;;1.30;1.20;;;;;;;;;;5059546;28;20558;-73
2022/07/03 16:08:07;;;;;;;1.10;1.00;;;;;;;;;;5062821;28;20211;-73
2022/07/03 16:10:56;;;;;;;1.37;1.37;;;;;;;;;;5061233;28;20239;-73
2022/07/03 16:13:44;;;;;;;1.10;1.10;;;;;;;;;;5062067;28;20219;-73
2022/07/03 16:16:31;;;;;;;1.10;1.10;;;;;;;;;;5059660;28;20214;-73
2022/07/03 16:19:19;;;;;;;1.00;1.00;;;;;;;;;;5054248;28;20704;-73
2022/07/03 16:22:07;;;;;;;1.00;1.00;;;;;;;;;;5062806;28;20687;-73
2022/07/03 16:24:57;;;;;;;1.10;1.10;;;;;;;;;;5064031;28;20232;-73
2022/07/03 16:27:46;;;;;;;1.00;1.00;;;;;;;;;;5056380;28;20214;-72
2022/07/03 16:30:36;;;;;;;0.93;0.93;;;;;;;;;;5055320;28;20218;-73
2022/07/03 16:33:25;;;;;;;1.20;1.20;;;;;;;;;;5059885;28;20333;-73
2022/07/03 16:36:18;;;;;;;1.33;1.33;;;;;;;;;;5057606;28;20278;-73
2022/07/03 16:39:08;;;;;;;1.30;1.30;;;;;;;;;;5058191;28;20682;-72
2022/07/03 16:41:56;;;;;;;1.10;1.10;;;;;;;;;;5058559;28;20203;-73
2022/07/03 16:44:46;;;;;;;1.33;1.33;;;;;;;;;;5051691;28;20224;-73
2022/07/03 16:47:39;;;;;;;1.20;1.20;;;;;;;;;;5059255;28;20216;-73
2022/07/03 16:50:27;;;;;;;1.13;1.13;;;;;;;;;;5055547;28;20657;-73
2022/07/03 16:53:17;;;;;;;1.10;1.10;;;;;;;;;;5060179;28;20591;-73
2022/07/03 16:56:05;;;;;;;1.03;1.03;;;;;;;;;;5064028;28;20215;-73
2022/07/03 16:58:54;;;;;;;1.70;1.60;;;;;;;;;;5056323;28;20987;-73
2022/07/03 17:01:44;;;;;;;1.50;1.50;;;;;;;;;;5062554;28;20209;-72
2022/07/03 17:04:31;;;;;;;1.43;1.37;;;;;;;;;;5054345;28;20228;-73
2022/07/03 17:07:20;;;;;;;1.40;1.30;;;;;;;;;;5054326;28;20294;-73
2022/07/03 17:10:08;;;;;;;1.20;1.20;;;;;;;;;;5057359;28;20246;-73
2022/07/03 17:12:58;;;;;;;1.37;1.30;;;;;;;;;;5056701;28;20214;-73
2022/07/03 17:15:46;;;;;;;1.57;1.47;;;;;;;;;;5057114;28;20225;-72
2022/07/03 17:18:41;;;;;;;1.30;1.30;;;;;;;;;;5056973;28;20624;-73
2022/07/03 17:21:30;;;;;;;1.30;1.30;;;;;;;;;;5058026;28;20207;-73
2022/07/03 17:24:20;;;;;;;1.10;1.10;;;;;;;;;;5053780;28;20253;-73